Time;durP1;ratioP1;P1;durP2;ratioP2;P2;SDS_P1;SDS_P2;PMS_P1;PMS_P2;Temp;Humidity;BMP_temperature;BMP_pressure;BME280_temperature;BME280_humidity;BME280_pressure;Samples;Min_cycle;Max_cycle;Signal;HPM_P1;HPM_P2
2023/01/11 00:00:06;;;;;;;25.23;13.40;;;9.30;87.70;;;;;;5050633;28;20055;-70
2023/01/11 00:03:16;;;;;;;19.95;12.70;;;;;;;;;;5051713;28;20048;-70
2023/01/11 00:06:20;;;;;;;23.30;13.35;;;;;;;;;;5051471;28;20063;-70
2023/01/11 00:09:24;;;;;;;22.92;13.43;;;9.20;87.50;;;;;;5050964;28;20056;-70
2023/01/11 00:12:28;;;;;;;19.88;12.35;;;;;;;;;;5051181;28;20055;-70
2023/01/11 00:15:35;;;;;;;23.63;12.38;;;9.00;88.60;;;;;;5051540;28;20044;-70
2023/01/11 00:18:39;;;;;;;20.88;11.60;;;;;;;;;;5051162;28;20558;-71
2023/01/11 00:21:44;;;;;;;20.80;11.43;;;;;;;;;;5051286;28;20044;-71
2023/01/11 00:24:48;;;;;;;19.02;10.52;;;9.20;88.50;;;;;;5050662;28;20044;-70
2023/01/11 00:27:53;;;;;;;17.58;11.05;;;;;;;;;;5051123;28;20061;-70
2023/01/11 00:30:57;;;;;;;19.90;12.30;;;9.40;90.30;;;;;;5050666;28;20044;-70
2023/01/11 00:34:02;;;;;;;22.88;12.35;;;9.10;89.00;;;;;;5051672;28;20048;-71
2023/01/11 00:37:06;;;;;;;20.73;13.23;;;8.70;89.60;;;;;;5051912;28;20495;-70
2023/01/11 00:40:10;;;;;;;23.92;13.40;;;;;;;;;;5052593;28;20048;-70
2023/01/11 00:49:59;;;;;;;22.73;13.50;;;8.60;91.00;;;;;;5050313;28;20036;-70
2023/01/11 00:53:04;;;;;;;24.50;13.82;;;7.70;90.80;;;;;;5050334;28;20087;-70
2023/01/11 00:56:08;;;;;;;28.90;14.52;;;8.30;91.10;;;;;;5050346;28;20037;-70
2023/01/11 00:59:13;;;;;;;32.75;17.75;;;8.70;91.30;;;;;;5050602;28;20052;-70
2023/01/11 01:02:17;;;;;;;27.23;15.38;;;9.10;92.00;;;;;;5054324;28;20040;-70
2023/01/11 01:05:21;;;;;;;25.55;15.25;;;8.60;91.20;;;;;;5057068;28;20047;-71
2023/01/11 01:08:26;;;;;;;38.35;23.15;;;7.80;91.50;;;;;;5054941;28;20079;-70
2023/01/11 01:11:33;;;;;;;37.40;22.08;;;;;;;;;;5054322;28;20044;-70
2023/01/11 01:14:38;;;;;;;39.88;22.27;;;;;;;;;;5054377;28;20036;-70
2023/01/11 01:17:42;;;;;;;40.63;23.50;;;;;;;;;;5054429;28;20068;-70
2023/01/11 01:20:49;;;;;;;39.63;24.48;;;7.70;92.40;;;;;;5054377;28;20036;-70
2023/01/11 01:23:55;;;;;;;41.90;24.65;;;9.20;93.10;;;;;;5053975;28;20051;-70
2023/01/11 01:26:59;;;;;;;36.65;23.60;;;7.70;92.80;;;;;;5054737;28;20040;-70
2023/01/11 01:30:04;;;;;;;42.13;24.30;;;7.60;92.60;;;;;;5057129;28;20044;-71
2023/01/11 01:33:08;;;;;;;37.40;22.90;;;7.90;92.80;;;;;;5057131;28;20056;-70
2023/01/11 01:36:13;;;;;;;35.70;21.67;;;;;;;;;;5057351;28;20051;-70
2023/01/11 01:39:17;;;;;;;34.08;19.65;;;8.10;91.80;;;;;;5056105;28;20056;-70
2023/01/11 01:42:22;;;;;;;29.42;19.25;;;7.30;90.90;;;;;;5055491;28;20043;-70
2023/01/11 01:45:27;;;;;;;30.10;18.65;;;8.30;91.00;;;;;;5054124;28;20047;-69
2023/01/11 01:48:31;;;;;;;41.83;22.70;;;8.90;92.00;;;;;;5055151;28;20404;-69
2023/01/11 01:51:46;;;;;;;37.42;22.67;;;7.40;91.70;;;;;;5056771;28;20507;-70
2023/01/11 01:54:51;;;;;;;39.80;22.55;;;;;;;;;;5055007;28;20040;-70
2023/01/11 01:57:56;;;;;;;37.85;23.10;;;7.50;91.80;;;;;;5055290;28;20052;-70
2023/01/11 02:01:45;;;;;;;39.55;22.67;;;7.50;92.00;;;;;;5057045;28;20052;-70
2023/01/11 02:04:26;;;;;;;38.45;23.80;;;;;;;;;;5053144;28;20040;-70
2023/01/11 02:07:32;;;;;;;38.75;23.50;;;;;;;;;;5053421;28;20396;-68
2023/01/11 02:10:37;;;;;;;36.67;22.45;;;8.20;92.10;;;;;;5053301;28;20059;-70
2023/01/11 02:13:44;;;;;;;37.35;23.13;;;;;;;;;;5052523;28;20064;-70
2023/01/11 02:16:49;;;;;;;34.28;20.92;;;7.90;92.00;;;;;;5053806;28;20600;-70
2023/01/11 02:20:11;;;;;;;34.42;21.52;;;7.40;91.90;;;;;;5053077;28;20535;-70
2023/01/11 02:23:34;;;;;;;33.67;20.98;;;6.20;91.20;;;;;;5052862;28;20124;-70
2023/01/11 02:26:57;;;;;;;31.85;18.67;;;;;;;;;;5053104;28;20056;-69
2023/01/11 02:30:01;;;;;;;32.50;18.77;;;;;;;;;;5053205;28;20484;-69
2023/01/11 02:33:24;;;;;;;35.50;19.80;;;8.20;91.60;;;;;;5052110;28;20043;-69
2023/01/11 02:36:44;;;;;;;35.58;21.10;;;8.20;92.40;;;;;;5052539;28;20048;-69
2023/01/11 02:39:57;;;;;;;34.38;20.30;;;8.50;92.60;;;;;;5052478;28;20048;-69
2023/01/11 02:46:57;;;;;;;30.17;18.48;;;7.10;92.90;;;;;;5052404;28;20048;-69
2023/01/11 02:50:01;;;;;;;35.10;19.48;;;;;;;;;;5052452;28;20047;-70
2023/01/11 02:53:09;;;;;;;36.33;20.15;;;6.70;93.40;;;;;;5052501;28;20052;-70
2023/01/11 02:56:22;;;;;;;33.88;19.60;;;8.60;93.60;;;;;;5052503;28;20040;-69
2023/01/11 02:59:34;;;;;;;30.08;19.60;;;6.60;93.10;;;;;;5052054;28;20400;-69
2023/01/11 03:02:38;;;;;;;29.13;18.67;;;;;;;;;;5053121;28;20050;-69
2023/01/11 03:05:47;;;;;;;29.88;17.27;;;6.60;93.00;;;;;;5054343;28;20052;-70
2023/01/11 03:09:04;;;;;;;26.02;16.55;;;;;;;;;;5053149;28;20405;-70
2023/01/11 03:16:15;;;;;;;31.95;17.67;;;6.80;93.00;;;;;;5011920;28;20049;-69
2023/01/11 03:19:29;;;;;;;32.53;18.88;;;;;;;;;;5051974;28;20052;-70
2023/01/11 03:22:36;;;;;;;29.70;17.85;;;6.90;93.60;;;;;;5052058;28;20044;-70
2023/01/11 03:25:44;;;;;;;27.60;17.33;;;;;;;;;;5051653;28;20510;-70
2023/01/11 03:28:48;;;;;;;27.83;18.40;;;;;;;;;;5051752;28;20044;-70
2023/01/11 03:31:57;;;;;;;26.88;17.67;;;;;;;;;;5051809;28;20043;-70
2023/01/11 03:35:15;;;;;;;28.77;18.13;;;6.90;94.10;;;;;;5052019;28;20040;-70
2023/01/11 03:38:25;;;;;;;30.20;17.23;;;;;;;;;;5051609;28;20132;-70
2023/01/11 03:41:33;;;;;;;28.27;18.20;;;4.80;93.60;;;;;;5051425;28;20048;-70
2023/01/11 03:44:48;;;;;;;27.63;17.55;;;2.80;93.40;;;;;;5051103;28;20047;-70
2023/01/11 03:47:54;;;;;;;30.85;17.98;;;6.20;94.60;;;;;;5051266;28;20040;-70
2023/01/11 03:51:00;;;;;;;32.42;19.23;;;6.30;94.80;;;;;;5050711;28;20048;-70
2023/01/11 03:54:07;;;;;;;28.23;16.80;;;7.10;95.10;;;;;;5051298;28;20560;-70
2023/01/11 03:57:23;;;;;;;27.75;18.17;;;;;;;;;;5051348;28;20397;-70
2023/01/11 04:00:28;;;;;;;32.05;19.38;;;;;;;;;;5050931;28;20064;-70
2023/01/11 04:03:32;;;;;;;37.95;21.17;;;;;;;;;;5040651;28;20044;-70
2023/01/11 04:06:38;;;;;;;35.00;22.63;;;;;;;;;;5053808;28;20044;-70
2023/01/11 04:09:42;;;;;;;36.72;20.25;;;;;;;;;;5051362;28;20416;-70
2023/01/11 04:12:47;;;;;;;31.90;16.15;;;;;;;;;;5052246;28;20052;-70
2023/01/11 04:15:53;;;;;;;19.90;13.18;;;;;;;;;;5051118;28;20036;-70
2023/01/11 04:18:57;;;;;;;22.08;14.15;;;;;;;;;;5050742;28;20396;-70
2023/01/11 04:22:02;;;;;;;29.45;13.73;;;;;;;;;;5050567;28;20040;-70
2023/01/11 04:25:07;;;;;;;22.15;14.05;;;;;;;;;;5050535;28;20052;-70
2023/01/11 04:28:12;;;;;;;24.88;14.38;;;;;;;;;;5050634;28;20044;-70
2023/01/11 04:31:16;;;;;;;25.38;14.73;;;;;;;;;;5050421;28;20044;-70
2023/01/11 04:34:23;;;;;;;21.10;13.13;;;;;;;;;;5050547;28;20044;-70
2023/01/11 04:37:28;;;;;;;20.38;12.40;;;;;;;;;;5049699;28;20036;-70
2023/01/11 04:40:33;;;;;;;18.35;11.30;;;;;;;;;;5051751;28;20064;-70
2023/01/11 04:43:37;;;;;;;22.77;10.90;;;;;;;;;;5054198;28;20052;-70
2023/01/11 04:46:41;;;;;;;20.15;11.48;;;;;;;;;;5052834;28;20052;-70
2023/01/11 04:49:46;;;;;;;14.23;9.70;;;;;;;;;;5054352;28;20043;-71
2023/01/11 04:52:50;;;;;;;19.27;10.90;;;;;;;;;;5053084;28;20041;-69
2023/01/11 04:56:00;;;;;;;17.08;10.50;;;7.30;93.00;;;;;;5050493;28;20060;-69
2023/01/11 04:59:04;;;;;;;16.95;10.75;;;;;;;;;;5050177;28;20079;-70
2023/01/11 05:02:09;;;;;;;16.10;10.00;;;;;;;;;;5050219;28;20048;-70
2023/01/11 05:05:13;;;;;;;18.48;9.85;;;;;;;;;;5050419;28;20053;-70
2023/01/11 05:08:17;;;;;;;19.40;10.77;;;;;;;;;;5050272;28;20049;-70
2023/01/11 05:11:22;;;;;;;27.15;10.18;;;;;;;;;;5051900;28;20491;-70
2023/01/11 05:14:32;;;;;;;16.25;8.75;;;;;;;;;;5053206;28;20040;-70
2023/01/11 05:17:36;;;;;;;16.48;10.10;;;;;;;;;;5051322;28;20037;-70
2023/01/11 05:20:40;;;;;;;16.63;10.85;;;;;;;;;;5051435;28;20052;-70
2023/01/11 05:23:45;;;;;;;20.30;10.43;;;;;;;;;;5051097;28;20056;-70
2023/01/11 05:26:51;;;;;;;16.63;10.23;;;;;;;;;;5050550;28;20044;-69
2023/01/11 05:29:55;;;;;;;28.98;10.93;;;;;;;;;;5049260;28;20052;-69
2023/01/11 05:33:01;;;;;;;20.75;10.70;;;;;;;;;;5050242;28;20040;-69
2023/01/11 05:36:06;;;;;;;17.40;10.35;;;;;;;;;;5050393;28;20051;-69
2023/01/11 05:39:12;;;;;;;23.42;10.82;;;7.00;93.90;;;;;;5049578;28;20052;-69
2023/01/11 05:42:16;;;;;;;20.48;11.50;;;;;;;;;;5048952;28;20032;-70
2023/01/11 05:45:31;;;;;;;18.13;10.23;;;;;;;;;;5050234;28;20040;-70
2023/01/11 05:48:35;;;;;;;15.88;9.90;;;;;;;;;;5051161;28;20052;-69
2023/01/11 05:51:40;;;;;;;19.83;11.05;;;;;;;;;;5053507;28;20040;-69
2023/01/11 05:54:45;;;;;;;24.23;11.27;;;;;;;;;;5054111;28;20455;-70
2023/01/11 05:57:49;;;;;;;18.45;11.32;;;;;;;;;;5054188;28;20040;-69
2023/01/11 06:00:55;;;;;;;18.35;10.90;;;6.10;93.50;;;;;;5054110;28;20512;-69
2023/01/11 06:03:59;;;;;;;19.48;11.50;;;;;;;;;;5054069;28;20032;-69
2023/01/11 06:07:05;;;;;;;20.17;11.48;;;;;;;;;;5054526;28;20640;-70
2023/01/11 06:10:09;;;;;;;24.50;12.60;;;6.40;93.90;;;;;;5054585;28;20056;-70
2023/01/11 06:13:26;;;;;;;21.30;11.95;;;;;;;;;;5054498;28;20075;-69
2023/01/11 06:16:30;;;;;;;20.90;12.02;;;;;;;;;;5054517;28;20048;-70
2023/01/11 06:19:34;;;;;;;16.63;10.90;;;;;;;;;;5054432;28;20404;-68
2023/01/11 06:22:39;;;;;;;19.30;12.07;;;;;;;;;;5053754;28;20550;-70
2023/01/11 06:25:45;;;;;;;33.78;13.35;;;6.50;94.20;;;;;;5054190;28;20415;-70
2023/01/11 06:28:49;;;;;;;27.65;15.07;;;;;;;;;;5054123;28;20044;-69
2023/01/11 06:31:54;;;;;;;23.77;13.20;;;;;;;;;;5053567;28;20408;-69
2023/01/11 06:34:58;;;;;;;27.15;12.15;;;;;;;;;;5053148;28;20048;-69
2023/01/11 06:38:02;;;;;;;21.77;12.52;;;;;;;;;;5054340;28;20507;-71
2023/01/11 06:41:07;;;;;;;23.23;12.40;;;;;;;;;;5054050;28;20047;-71
2023/01/11 06:44:12;;;;;;;26.30;13.27;;;;;;;;;;5051744;28;20040;-71
2023/01/11 06:47:16;;;;;;;30.00;13.23;;;;;;;;;;5052356;28;20048;-71
2023/01/11 06:50:21;;;;;;;39.97;16.27;;;;;;;;;;5053114;28;20040;-68
2023/01/11 06:53:26;;;;;;;27.83;15.65;;;;;;;;;;5052132;28;20044;-70
2023/01/11 06:56:30;;;;;;;42.90;23.05;;;;;;;;;;5051597;28;20043;-69
2023/01/11 06:59:35;;;;;;;68.22;37.40;;;;;;;;;;5051707;28;20056;-70
2023/01/11 07:02:39;;;;;;;36.70;18.50;;;;;;;;;;5051958;28;20036;-70
2023/01/11 07:05:44;;;;;;;38.30;19.42;;;7.10;95.60;;;;;;5051767;28;20044;-70
2023/01/11 07:08:49;;;;;;;41.60;19.85;;;;;;;;;;5052616;28;20064;-71
2023/01/11 07:11:53;;;;;;;36.08;15.77;;;;;;;;;;5053206;28;20032;-70
2023/01/11 07:14:57;;;;;;;34.55;17.38;;;;;;;;;;5052330;28;20063;-71
2023/01/11 07:18:02;;;;;;;36.75;16.20;;;;;;;;;;5053712;28;20048;-70
2023/01/11 07:21:06;;;;;;;33.33;15.55;;;;;;;;;;5052940;28;20060;-69
2023/01/11 07:24:10;;;;;;;38.03;15.40;;;6.70;95.00;;;;;;5053419;28;20503;-70
2023/01/11 07:27:14;;;;;;;32.28;14.75;;;;;;;;;;5054137;28;20507;-72
2023/01/11 07:30:19;;;;;;;27.73;14.65;;;;;;;;;;5052706;28;20396;-72
2023/01/11 07:33:23;;;;;;;44.33;18.15;;;7.30;94.70;;;;;;5053277;28;20048;-72
2023/01/11 07:36:28;;;;;;;36.00;18.08;;;7.40;94.30;;;;;;5054316;28;20048;-72
2023/01/11 07:39:32;;;;;;;30.40;16.55;;;7.40;94.10;;;;;;5053770;28;20055;-72
2023/01/11 07:46:00;;;;;;;50.83;24.17;;;;;;;;;;5053026;28;20051;-72
2023/01/11 07:49:04;;;;;;;50.75;24.85;;;;;;;;;;5050205;28;20497;-71
2023/01/11 07:52:11;;;;;;;46.25;23.55;;;8.00;93.70;;;;;;5051088;28;20044;-70
2023/01/11 07:55:16;;;;;;;36.05;22.23;;;7.10;93.40;;;;;;5050662;28;20040;-71
2023/01/11 07:58:20;;;;;;;40.08;21.52;;;9.30;93.50;;;;;;5050703;28;20063;-71
2023/01/11 08:01:27;;;;;;;54.22;23.50;;;7.30;92.90;;;;;;5050531;28;20048;-72
2023/01/11 08:04:31;;;;;;;33.60;15.57;;;7.80;92.30;;;;;;5051650;28;20063;-70
2023/01/11 08:07:35;;;;;;;33.35;13.93;;;9.30;92.30;;;;;;5052324;28;20048;-71
2023/01/11 08:10:39;;;;;;;23.08;11.80;;;9.00;91.30;;;;;;5051416;28;20052;-72
2023/01/11 08:17:20;;;;;;;24.92;13.10;;;;;;;;;;5040192;28;20040;-72
2023/01/11 08:20:25;;;;;;;25.63;11.43;;;9.10;90.00;;;;;;5051426;28;20060;-71
2023/01/11 08:23:30;;;;;;;28.15;11.00;;;;;;;;;;5051287;28;20400;-71
2023/01/11 08:26:34;;;;;;;33.53;14.35;;;;;;;;;;5051925;28;20498;-71
2023/01/11 08:29:42;;;;;;;24.27;14.20;;;10.60;89.90;;;;;;5051687;28;20495;-71
2023/01/11 08:32:48;;;;;;;24.30;13.10;;;;;;;;;;5051855;28;20040;-71
2023/01/11 08:35:52;;;;;;;36.10;15.02;;;;;;;;;;5051771;28;20044;-71
2023/01/11 08:38:57;;;;;;;40.28;15.52;;;11.20;87.10;;;;;;5051607;28;20052;-70
2023/01/11 08:42:02;;;;;;;30.05;14.20;;;;;;;;;;5052161;28;20515;-71
2023/01/11 08:45:06;;;;;;;28.13;14.10;;;11.40;88.00;;;;;;5051047;28;20463;-72
2023/01/11 08:48:12;;;;;;;27.63;14.20;;;;;;;;;;5051834;28;20040;-70
2023/01/11 08:51:17;;;;;;;19.25;11.35;;;11.80;88.60;;;;;;5052045;28;20048;-73
2023/01/11 08:54:21;;;;;;;20.40;12.40;;;13.20;88.20;;;;;;5050453;28;20389;-75
2023/01/11 08:57:25;;;;;;;20.30;11.98;;;12.30;87.00;;;;;;5051684;28;20396;-74
2023/01/11 09:00:29;;;;;;;24.23;10.50;;;12.40;86.50;;;;;;5051486;28;20052;-73
2023/01/11 09:03:33;;;;;;;17.05;10.52;;;;;;;;;;5052081;28;20044;-72
2023/01/11 09:06:37;;;;;;;18.52;8.85;;;;;;;;;;5052844;28;20055;-72
2023/01/11 09:09:41;;;;;;;14.43;7.57;;;12.90;83.80;;;;;;5051357;28;20045;-72
2023/01/11 09:12:45;;;;;;;15.38;7.60;;;;;;;;;;5051545;28;20388;-71
2023/01/11 09:15:50;;;;;;;16.08;7.22;;;;;;;;;;5052168;28;20037;-72
2023/01/11 09:18:55;;;;;;;17.00;7.60;;;;;;;;;;5050810;28;20065;-73
2023/01/11 09:22:01;;;;;;;11.25;6.82;;;;;;;;;;5052186;28;20041;-74
2023/01/11 09:25:06;;;;;;;12.30;7.25;;;14.50;80.90;;;;;;5054231;28;20044;-73
2023/01/11 09:28:11;;;;;;;22.55;6.85;;;;;;;;;;5054943;28;20044;-72
2023/01/11 09:31:15;;;;;;;9.82;5.78;;;;;;;;;;5055117;28;20578;-72
2023/01/11 09:34:19;;;;;;;12.40;6.10;;;;;;;;;;5054513;28;20041;-73
2023/01/11 09:37:23;;;;;;;10.20;4.97;;;14.30;76.40;;;;;;5055176;28;20037;-71
2023/01/11 09:40:58;;;;;;;24.65;7.38;;;14.30;75.40;;;;;;5059088;28;20052;-72
2023/01/11 09:44:15;;;;;;;9.48;4.95;;;14.60;74.70;;;;;;5056164;28;20068;-72
2023/01/11 09:47:41;;;;;;;9.05;4.05;;;14.70;75.30;;;;;;5055957;28;20040;-72
2023/01/11 09:50:47;;;;;;;6.95;4.00;;;14.90;72.30;;;;;;5056515;28;20055;-71
2023/01/11 09:53:53;;;;;;;11.80;4.47;;;16.00;71.50;;;;;;5055460;28;20044;-73
2023/01/11 09:57:50;;;;;;;8.90;4.75;;;15.10;72.60;;;;;;5055112;28;20502;-73
2023/01/11 10:01:36;;;;;;;6.97;3.83;;;15.30;71.60;;;;;;5033580;28;20152;-73
2023/01/11 10:05:05;;;;;;;9.02;4.50;;;16.70;73.70;;;;;;4978942;28;20048;-71
2023/01/11 10:08:26;;;;;;;7.45;4.30;;;15.60;72.50;;;;;;5049999;28;20055;-71
2023/01/11 10:11:54;;;;;;;14.05;5.13;;;15.90;73.00;;;;;;5053922;28;20404;-74
2023/01/11 10:15:11;;;;;;;12.73;5.28;;;16.00;72.10;;;;;;5055598;28;20048;-72
2023/01/11 10:19:04;;;;;;;17.58;5.80;;;16.00;72.20;;;;;;5054126;28;20067;-73
2023/01/11 10:22:31;;;;;;;9.82;5.25;;;16.20;72.20;;;;;;5050735;28;20052;-72
2023/01/11 10:25:41;;;;;;;16.35;5.15;;;16.30;71.70;;;;;;5053987;28;20064;-72
2023/01/11 10:32:52;;;;;;;12.18;4.32;;;16.50;71.20;;;;;;5038694;28;20044;-73
2023/01/11 10:39:58;;;;;;;10.93;4.95;;;16.70;69.40;;;;;;5053814;28;20071;-71
2023/01/11 10:43:23;;;;;;;9.70;5.40;;;16.70;69.60;;;;;;5054943;28;20040;-69
2023/01/11 10:46:30;;;;;;;17.52;4.78;;;16.70;70.50;;;;;;5053628;28;20047;-72
2023/01/11 10:49:55;;;;;;;10.25;4.20;;;16.80;68.60;;;;;;5055312;28;20044;-72
2023/01/11 10:53:27;;;;;;;9.27;4.57;;;16.80;69.80;;;;;;5053959;28;20040;-75
2023/01/11 10:56:41;;;;;;;7.97;3.42;;;16.80;68.90;;;;;;5055054;28;20127;-72
2023/01/11 11:00:08;;;;;;;6.72;3.25;;;16.90;69.40;;;;;;5054083;28;20107;-75
2023/01/11 11:03:27;;;;;;;7.75;3.47;;;16.80;69.20;;;;;;5055151;28;20048;-73
2023/01/11 11:06:57;;;;;;;8.68;3.35;;;16.90;70.00;;;;;;5053880;28;20044;-74
2023/01/11 11:10:22;;;;;;;9.07;3.63;;;16.90;68.60;;;;;;5053439;28;20504;-74
2023/01/11 11:13:48;;;;;;;6.78;3.20;;;16.90;69.50;;;;;;5053336;28;20116;-73
2023/01/11 11:17:04;;;;;;;8.82;3.42;;;16.90;69.30;;;;;;5053111;28;20048;-72
2023/01/11 11:20:15;;;;;;;7.32;4.30;;;16.90;69.20;;;;;;5053614;28;20055;-72
2023/01/11 11:23:23;;;;;;;9.23;3.47;;;16.90;69.90;;;;;;5052606;28;20040;-73
2023/01/11 11:26:36;;;;;;;9.70;3.75;;;16.90;69.30;;;;;;5053714;28;20056;-73
2023/01/11 11:29:42;;;;;;;8.70;4.32;;;16.80;69.30;;;;;;5054482;28;20543;-70
2023/01/11 11:32:55;;;;;;;7.85;3.58;;;16.60;67.60;;;;;;5054252;28;20040;-71
2023/01/11 11:36:13;;;;;;;9.65;4.75;;;16.60;69.30;;;;;;5055366;28;20048;-75
2023/01/11 11:39:31;;;;;;;6.43;3.80;;;16.50;69.50;;;;;;5053970;28;20056;-72
2023/01/11 11:42:35;;;;;;;12.20;4.32;;;16.50;69.40;;;;;;5053413;28;20392;-76
2023/01/11 11:45:59;;;;;;;7.25;3.67;;;16.40;69.50;;;;;;5054244;28;20048;-71
2023/01/11 11:49:14;;;;;;;7.75;3.45;;;16.40;69.40;;;;;;5052441;28;20041;-72
2023/01/11 11:52:21;;;;;;;4.72;2.55;;;16.30;69.10;;;;;;5053845;28;20051;-73
2023/01/11 11:55:31;;;;;;;6.82;2.88;;;16.10;65.90;;;;;;5052420;28;20048;-74
2023/01/11 11:58:40;;;;;;;6.50;3.22;;;16.10;66.60;;;;;;5052835;28;20048;-71
2023/01/11 12:01:47;;;;;;;4.65;3.30;;;16.10;68.20;;;;;;5052576;28;20503;-71
2023/01/11 12:04:53;;;;;;;5.53;3.03;;;16.10;68.20;;;;;;5052829;28;20558;-72
2023/01/11 12:07:58;;;;;;;5.45;2.08;;;16.00;68.50;;;;;;5051232;28;20400;-71
2023/01/11 12:11:06;;;;;;;3.90;2.00;;;16.00;66.80;;;;;;5052430;28;20052;-72
2023/01/11 12:14:15;;;;;;;8.38;2.55;;;15.90;64.90;;;;;;5051899;28;20036;-71
2023/01/11 12:17:24;;;;;;;4.15;2.38;;;15.90;64.50;;;;;;5052602;28;20040;-72
2023/01/11 12:20:32;;;;;;;4.93;2.38;;;15.90;66.10;;;;;;5050834;28;20056;-73
2023/01/11 12:23:37;;;;;;;8.25;2.22;;;15.80;65.10;;;;;;5051968;28;20036;-71
2023/01/11 12:27:15;;;;;;;3.05;1.90;;;15.80;64.40;;;;;;5051477;28;20048;-72
2023/01/11 12:30:40;;;;;;;6.13;1.98;;;15.70;65.70;;;;;;5051713;28;20426;-71
2023/01/11 12:34:03;;;;;;;7.65;2.03;;;15.70;67.30;;;;;;5049476;28;20044;-72
2023/01/11 12:37:38;;;;;;;10.45;6.05;;;15.60;66.30;;;;;;5049898;28;20056;-71
2023/01/11 12:41:19;;;;;;;7.00;3.78;;;15.70;64.10;;;;;;5049726;28;20056;-70
2023/01/11 12:45:04;;;;;;;5.38;2.45;;;15.60;65.40;;;;;;5050002;28;20135;-71
2023/01/11 12:48:51;;;;;;;5.03;2.65;;;15.60;65.50;;;;;;5050373;28;20043;-70
2023/01/11 12:52:20;;;;;;;7.65;2.70;;;15.20;61.30;;;;;;5051240;28;20052;-72
2023/01/11 12:56:02;;;;;;;5.82;2.33;;;15.40;64.90;;;;;;5051844;28;20040;-71
2023/01/11 12:59:36;;;;;;;4.05;1.90;;;15.50;67.30;;;;;;5050696;28;20067;-71
2023/01/11 13:03:04;;;;;;;3.40;2.40;;;15.40;65.40;;;;;;5051245;28;20048;-71
2023/01/11 13:06:08;;;;;;;4.50;2.50;;;15.30;63.30;;;;;;5051196;28;20393;-72
2023/01/11 13:09:54;;;;;;;7.45;3.00;;;15.30;63.90;;;;;;5050380;28;20048;-70
2023/01/11 13:12:58;;;;;;;10.68;4.20;;;15.30;65.90;;;;;;5055545;28;20044;-71
2023/01/11 13:16:02;;;;;;;7.20;3.80;;;15.30;65.30;;;;;;5051382;28;20043;-71
2023/01/11 13:19:26;;;;;;;6.03;4.40;;;15.20;65.00;;;;;;5051191;28;20059;-71
2023/01/11 13:22:36;;;;;;;5.25;3.60;;;15.30;65.20;;;;;;5050741;28;20052;-71
2023/01/11 13:25:44;;;;;;;5.97;3.40;;;15.20;67.10;;;;;;5051482;28;20043;-72
2023/01/11 13:29:03;;;;;;;8.20;3.92;;;15.20;68.40;;;;;;5050958;28;20503;-72
2023/01/11 13:32:18;;;;;;;6.53;3.20;;;15.10;66.50;;;;;;5050401;28;20502;-72
2023/01/11 13:35:48;;;;;;;4.03;2.33;;;15.10;66.40;;;;;;5050814;28;20048;-71
2023/01/11 13:39:00;;;;;;;8.45;3.03;;;15.00;66.00;;;;;;5051064;28;20040;-72
2023/01/11 13:42:16;;;;;;;3.40;2.20;;;15.00;62.70;;;;;;5050498;28;20052;-70
2023/01/11 13:45:26;;;;;;;3.92;2.13;;;15.00;66.90;;;;;;5049498;28;20690;-68
2023/01/11 13:48:44;;;;;;;6.07;2.00;;;14.90;63.30;;;;;;5050237;28;20044;-74
2023/01/11 13:51:54;;;;;;;4.85;1.85;;;14.90;66.80;;;;;;5050028;28;20040;-68
2023/01/11 13:55:10;;;;;;;4.30;2.22;;;14.90;65.80;;;;;;5049488;28;20672;-68
2023/01/11 13:58:27;;;;;;;6.22;2.30;;;14.80;65.50;;;;;;5050375;28;20048;-70
2023/01/11 14:01:56;;;;;;;3.55;2.25;;;14.70;62.50;;;;;;5051314;28;20052;-72
2023/01/11 14:05:16;;;;;;;5.40;3.10;;;14.70;62.60;;;;;;5050495;28;20064;-70
2023/01/11 14:08:32;;;;;;;7.38;3.33;;;14.70;63.60;;;;;;5050222;28;20056;-71
2023/01/11 14:12:00;;;;;;;5.70;3.08;;;14.60;65.20;;;;;;5055449;28;20406;-73
2023/01/11 14:15:36;;;;;;;4.82;3.22;;;14.70;68.80;;;;;;5054241;28;20036;-70
2023/01/11 14:18:58;;;;;;;9.15;3.55;;;14.60;67.40;;;;;;5054187;28;20036;-71
2023/01/11 14:22:03;;;;;;;5.63;3.05;;;14.50;65.10;;;;;;5052764;28;20056;-72
2023/01/11 14:25:26;;;;;;;4.85;3.50;;;14.50;65.00;;;;;;5052283;28;20043;-70
2023/01/11 14:28:45;;;;;;;8.48;2.95;;;14.40;67.70;;;;;;5052203;28;20035;-67
2023/01/11 14:32:14;;;;;;;5.97;2.40;;;14.10;65.80;;;;;;5053552;28;20526;-71
2023/01/11 14:35:34;;;;;;;8.20;2.92;;;14.40;65.60;;;;;;5052885;28;20044;-69
2023/01/11 14:39:05;;;;;;;9.20;3.25;;;14.30;66.50;;;;;;5052549;28;20044;-71
2023/01/11 14:42:48;;;;;;;7.53;3.20;;;14.30;66.50;;;;;;5053669;28;20052;-69
2023/01/11 14:46:11;;;;;;;7.45;4.75;;;14.30;67.00;;;;;;5053529;28;20040;-71
2023/01/11 14:49:37;;;;;;;10.20;5.60;;;14.20;66.80;;;;;;5052435;28;20052;-69
2023/01/11 14:52:43;;;;;;;12.23;6.75;;;14.20;67.50;;;;;;5051972;28;20067;-69
2023/01/11 14:55:48;;;;;;;10.02;5.80;;;14.20;68.50;;;;;;5053266;28;20066;-71
2023/01/11 14:59:19;;;;;;;11.38;6.10;;;14.20;67.20;;;;;;5053488;28;20040;-70
2023/01/11 15:02:26;;;;;;;12.55;5.72;;;14.10;68.20;;;;;;5063718;28;20051;-68
2023/01/11 15:05:31;;;;;;;11.70;5.38;;;14.00;68.80;;;;;;5053083;28;20048;-66
2023/01/11 15:08:49;;;;;;;11.40;6.25;;;14.00;69.50;;;;;;5052470;28;20056;-68
2023/01/11 15:11:53;;;;;;;16.55;5.80;;;13.90;70.00;;;;;;5052834;28;20048;-70
2023/01/11 15:15:15;;;;;;;17.98;7.00;;;13.90;70.20;;;;;;5053023;28;20162;-69
2023/01/11 15:18:23;;;;;;;12.40;5.20;;;13.90;71.30;;;;;;5052738;28;20063;-72
2023/01/11 15:21:27;;;;;;;13.30;6.07;;;13.80;72.30;;;;;;5051790;28;20064;-68
2023/01/11 15:24:34;;;;;;;18.63;7.68;;;13.70;71.60;;;;;;5052482;28;20048;-68
2023/01/11 15:27:41;;;;;;;26.02;8.65;;;13.60;71.80;;;;;;5052589;28;20051;-67
2023/01/11 15:30:51;;;;;;;46.45;9.68;;;13.60;72.30;;;;;;5052645;28;20388;-69
2023/01/11 15:34:01;;;;;;;20.55;8.90;;;13.40;72.50;;;;;;5052141;28;20043;-70
2023/01/11 15:37:14;;;;;;;25.67;11.80;;;12.30;72.80;;;;;;5052341;28;20052;-71
2023/01/11 15:40:49;;;;;;;32.33;13.13;;;13.30;74.00;;;;;;5052527;28;20040;-70
2023/01/11 15:43:52;;;;;;;39.40;24.92;;;13.30;74.10;;;;;;5051820;28;20044;-69
2023/01/11 15:47:19;;;;;;;34.83;19.60;;;13.20;74.20;;;;;;5052130;28;20056;-71
2023/01/11 15:50:45;;;;;;;28.60;15.15;;;13.30;74.50;;;;;;5052345;28;20048;-70
2023/01/11 15:54:12;;;;;;;34.50;15.90;;;13.00;75.30;;;;;;5052142;28;20040;-70
2023/01/11 15:57:38;;;;;;;35.85;15.77;;;12.90;76.10;;;;;;5051438;28;20052;-70
2023/01/11 16:01:04;;;;;;;31.05;14.55;;;12.90;77.10;;;;;;5053141;28;20060;-71
2023/01/11 16:04:40;;;;;;;24.67;14.35;;;12.60;77.90;;;;;;5051228;28;20044;-70
2023/01/11 16:07:45;;;;;;;31.73;14.27;;;;;;;;;;5055603;28;20507;-71
2023/01/11 16:11:38;;;;;;;30.70;14.25;;;11.70;77.80;;;;;;5051544;28;20044;-69
2023/01/11 16:14:45;;;;;;;36.72;16.88;;;13.00;79.60;;;;;;5039171;28;20503;-69
2023/01/11 16:17:50;;;;;;;32.95;14.63;;;12.60;78.60;;;;;;5051291;28;20040;-71
2023/01/11 16:21:01;;;;;;;36.67;15.27;;;12.60;78.70;;;;;;5051367;28;20059;-68
2023/01/11 16:24:07;;;;;;;41.30;15.30;;;12.60;78.30;;;;;;5051010;28;20495;-67
2023/01/11 16:27:23;;;;;;;47.53;17.48;;;9.00;76.70;;;;;;5051309;28;20056;-67
2023/01/11 16:30:28;;;;;;;46.65;21.95;;;;;;;;;;5050997;28;20040;-66
2023/01/11 16:33:33;;;;;;;59.67;26.73;;;12.60;79.50;;;;;;5049504;28;20063;-66
2023/01/11 16:36:38;;;;;;;56.00;25.17;;;13.10;80.40;;;;;;5050918;28;20432;-68
2023/01/11 16:39:42;;;;;;;46.88;20.50;;;;;;;;;;5050902;28;20396;-67
2023/01/11 16:43:00;;;;;;;29.17;14.68;;;13.60;78.70;;;;;;5050616;28;20052;-66
2023/01/11 16:46:04;;;;;;;48.45;19.90;;;12.20;79.20;;;;;;5051110;28;20048;-66
2023/01/11 16:49:09;;;;;;;56.83;26.67;;;12.20;79.10;;;;;;5051069;28;20108;-66
2023/01/11 16:52:26;;;;;;;67.63;27.70;;;10.50;78.90;;;;;;5050818;28;20059;-67
2023/01/11 16:55:43;;;;;;;62.72;23.35;;;11.00;79.70;;;;;;5050995;28;20044;-67
2023/01/11 16:59:13;;;;;;;55.97;24.52;;;12.00;79.40;;;;;;5051012;28;20056;-69
2023/01/11 17:02:42;;;;;;;46.65;26.00;;;13.90;80.70;;;;;;5055131;28;20056;-68
2023/01/11 17:06:00;;;;;;;62.50;30.65;;;11.70;79.60;;;;;;5050771;28;20044;-70
2023/01/11 17:09:04;;;;;;;66.00;31.77;;;;;;;;;;5050431;28;20503;-68
2023/01/11 17:12:14;;;;;;;65.68;30.15;;;;;;;;;;5049969;28;20048;-69
2023/01/11 17:15:38;;;;;;;58.22;30.42;;;11.30;81.10;;;;;;5051108;28;20056;-70
2023/01/11 17:18:43;;;;;;;57.47;28.15;;;11.30;81.70;;;;;;5050856;28;20063;-67
2023/01/11 17:22:07;;;;;;;55.03;30.10;;;11.10;82.00;;;;;;5050476;28;20613;-68
2023/01/11 17:25:28;;;;;;;66.40;28.17;;;11.00;82.80;;;;;;5050604;28;20051;-68
2023/01/11 17:28:32;;;;;;;55.88;28.15;;;11.00;83.60;;;;;;5048878;28;20055;-68
2023/01/11 17:31:38;;;;;;;62.75;29.73;;;11.00;83.20;;;;;;5049845;28;20048;-67
2023/01/11 17:34:43;;;;;;;64.45;30.85;;;;;;;;;;5048305;28;20048;-68